sensor_id;sensor_type;location;lat;lon;timestamp;P1;durP1;ratioP1;P2;durP2;ratioP2
27209;SDS011;14721;42.668;23.386;2024-01-16T00:02:00;18.67;;;7.70;;
27209;SDS011;14721;42.668;23.386;2024-01-16T00:04:27;18.77;;;8.63;;
27209;SDS011;14721;42.668;23.386;2024-01-16T00:06:55;24.07;;;9.53;;
27209;SDS011;14721;42.668;23.386;2024-01-16T00:09:20;18.70;;;8.33;;
27209;SDS011;14721;42.668;23.386;2024-01-16T00:11:46;18.03;;;8.80;;
27209;SDS011;14721;42.668;23.386;2024-01-16T00:14:11;18.07;;;7.87;;
27209;SDS011;14721;42.668;23.386;2024-01-16T00:16:49;16.90;;;7.70;;
27209;SDS011;14721;42.668;23.386;2024-01-16T00:19:16;15.03;;;7.17;;
27209;SDS011;14721;42.668;23.386;2024-01-16T00:21:48;18.10;;;7.23;;
27209;SDS011;14721;42.668;23.386;2024-01-16T00:24:31;16.30;;;6.70;;
27209;SDS011;14721;42.668;23.386;2024-01-16T00:27:09;15.73;;;7.33;;
27209;SDS011;14721;42.668;23.386;2024-01-16T00:29:35;12.73;;;6.40;;
27209;SDS011;14721;42.668;23.386;2024-01-16T00:32:06;14.13;;;5.93;;
27209;SDS011;14721;42.668;23.386;2024-01-16T00:34:42;13.87;;;5.53;;
27209;SDS011;14721;42.668;23.386;2024-01-16T00:37:10;16.43;;;5.60;;
27209;SDS011;14721;42.668;23.386;2024-01-16T00:39:43;10.07;;;5.50;;
27209;SDS011;14721;42.668;23.386;2024-01-16T00:42:55;15.80;;;6.27;;
27209;SDS011;14721;42.668;23.386;2024-01-16T00:45:21;11.50;;;5.57;;
27209;SDS011;14721;42.668;23.386;2024-01-16T00:47:51;12.90;;;6.33;;
27209;SDS011;14721;42.668;23.386;2024-01-16T00:50:42;13.20;;;7.00;;
27209;SDS011;14721;42.668;23.386;2024-01-16T00:53:19;13.37;;;6.37;;
27209;SDS011;14721;42.668;23.386;2024-01-16T00:55:54;15.43;;;6.37;;
27209;SDS011;14721;42.668;23.386;2024-01-16T00:58:41;13.27;;;6.67;;
27209;SDS011;14721;42.668;23.386;2024-01-16T01:01:28;13.63;;;7.13;;
27209;SDS011;14721;42.668;23.386;2024-01-16T01:04:05;14.23;;;6.70;;
27209;SDS011;14721;42.668;23.386;2024-01-16T01:06:35;12.77;;;6.10;;
27209;SDS011;14721;42.668;23.386;2024-01-16T01:09:21;13.33;;;6.70;;
27209;SDS011;14721;42.668;23.386;2024-01-16T01:15:19;13.67;;;6.57;;
27209;SDS011;14721;42.668;23.386;2024-01-16T01:17:48;13.83;;;7.53;;
27209;SDS011;14721;42.668;23.386;2024-01-16T01:20:20;13.23;;;6.47;;
27209;SDS011;14721;42.668;23.386;2024-01-16T01:22:49;12.30;;;6.50;;
27209;SDS011;14721;42.668;23.386;2024-01-16T01:25:27;15.70;;;7.17;;
27209;SDS011;14721;42.668;23.386;2024-01-16T01:27:53;15.83;;;7.50;;
27209;SDS011;14721;42.668;23.386;2024-01-16T01:30:19;11.77;;;6.07;;
27209;SDS011;14721;42.668;23.386;2024-01-16T01:39:37;13.97;;;6.77;;
27209;SDS011;14721;42.668;23.386;2024-01-16T01:42:24;13.57;;;6.93;;
27209;SDS011;14721;42.668;23.386;2024-01-16T01:45:02;13.20;;;6.77;;
27209;SDS011;14721;42.668;23.386;2024-01-16T01:47:48;13.60;;;6.27;;
27209;SDS011;14721;42.668;23.386;2024-01-16T01:50:22;15.60;;;7.00;;
27209;SDS011;14721;42.668;23.386;2024-01-16T01:52:49;15.43;;;6.87;;
27209;SDS011;14721;42.668;23.386;2024-01-16T01:55:19;14.07;;;7.73;;
27209;SDS011;14721;42.668;23.386;2024-01-16T01:57:48;15.00;;;7.13;;
27209;SDS011;14721;42.668;23.386;2024-01-16T02:00:34;17.00;;;7.47;;
27209;SDS011;14721;42.668;23.386;2024-01-16T02:03:04;18.43;;;7.43;;
27209;SDS011;14721;42.668;23.386;2024-01-16T02:05:33;15.20;;;7.07;;
27209;SDS011;14721;42.668;23.386;2024-01-16T02:08:19;17.83;;;7.90;;
27209;SDS011;14721;42.668;23.386;2024-01-16T02:10:47;16.13;;;7.40;;
27209;SDS011;14721;42.668;23.386;2024-01-16T02:13:18;11.00;;;6.00;;
27209;SDS011;14721;42.668;23.386;2024-01-16T02:15:48;12.13;;;6.27;;
27209;SDS011;14721;42.668;23.386;2024-01-16T02:18:16;13.50;;;6.50;;
27209;SDS011;14721;42.668;23.386;2024-01-16T02:20:47;14.57;;;7.47;;
27209;SDS011;14721;42.668;23.386;2024-01-16T02:23:31;13.73;;;6.23;;
27209;SDS011;14721;42.668;23.386;2024-01-16T02:26:29;11.47;;;6.10;;
27209;SDS011;14721;42.668;23.386;2024-01-16T02:29:21;14.40;;;6.67;;
27209;SDS011;14721;42.668;23.386;2024-01-16T02:32:10;13.30;;;6.27;;
27209;SDS011;14721;42.668;23.386;2024-01-16T02:34:38;13.40;;;6.47;;
27209;SDS011;14721;42.668;23.386;2024-01-16T02:37:04;11.40;;;5.97;;
27209;SDS011;14721;42.668;23.386;2024-01-16T02:39:53;12.97;;;4.97;;
27209;SDS011;14721;42.668;23.386;2024-01-16T02:42:32;12.90;;;5.70;;
27209;SDS011;14721;42.668;23.386;2024-01-16T02:45:02;11.93;;;5.33;;
27209;SDS011;14721;42.668;23.386;2024-01-16T02:47:34;13.93;;;5.70;;
27209;SDS011;14721;42.668;23.386;2024-01-16T02:50:00;10.87;;;6.00;;
27209;SDS011;14721;42.668;23.386;2024-01-16T02:52:32;14.00;;;6.13;;
27209;SDS011;14721;42.668;23.386;2024-01-16T02:55:27;12.77;;;5.87;;
27209;SDS011;14721;42.668;23.386;2024-01-16T02:57:55;10.30;;;5.50;;
27209;SDS011;14721;42.668;23.386;2024-01-16T03:00:21;16.50;;;7.13;;
27209;SDS011;14721;42.668;23.386;2024-01-16T03:02:50;14.77;;;6.00;;
27209;SDS011;14721;42.668;23.386;2024-01-16T03:05:15;14.23;;;6.07;;
27209;SDS011;14721;42.668;23.386;2024-01-16T03:07:41;11.67;;;6.63;;
27209;SDS011;14721;42.668;23.386;2024-01-16T03:10:07;15.20;;;6.33;;
27209;SDS011;14721;42.668;23.386;2024-01-16T03:12:32;12.77;;;5.87;;
27209;SDS011;14721;42.668;23.386;2024-01-16T03:14:59;12.30;;;6.03;;
27209;SDS011;14721;42.668;23.386;2024-01-16T03:17:24;15.03;;;6.37;;
27209;SDS011;14721;42.668;23.386;2024-01-16T03:19:50;12.33;;;5.93;;
27209;SDS011;14721;42.668;23.386;2024-01-16T03:22:32;14.07;;;5.97;;
27209;SDS011;14721;42.668;23.386;2024-01-16T03:25:08;9.83;;;5.60;;
27209;SDS011;14721;42.668;23.386;2024-01-16T03:27:38;9.53;;;4.93;;
27209;SDS011;14721;42.668;23.386;2024-01-16T03:30:06;9.73;;;5.00;;
27209;SDS011;14721;42.668;23.386;2024-01-16T03:32:33;11.57;;;5.17;;
27209;SDS011;14721;42.668;23.386;2024-01-16T03:35:04;5.40;;;3.03;;
27209;SDS011;14721;42.668;23.386;2024-01-16T03:37:38;5.53;;;2.70;;
27209;SDS011;14721;42.668;23.386;2024-01-16T03:40:15;10.37;;;3.37;;
27209;SDS011;14721;42.668;23.386;2024-01-16T03:42:44;5.93;;;3.30;;
27209;SDS011;14721;42.668;23.386;2024-01-16T03:45:30;7.23;;;2.70;;
27209;SDS011;14721;42.668;23.386;2024-01-16T03:48:18;5.03;;;2.97;;
27209;SDS011;14721;42.668;23.386;2024-01-16T03:50:49;4.40;;;2.77;;
27209;SDS011;14721;42.668;23.386;2024-01-16T03:53:15;4.03;;;2.53;;
27209;SDS011;14721;42.668;23.386;2024-01-16T03:55:51;1.77;;;1.50;;
27209;SDS011;14721;42.668;23.386;2024-01-16T03:58:28;4.30;;;1.80;;
27209;SDS011;14721;42.668;23.386;2024-01-16T04:00:53;3.37;;;2.00;;
27209;SDS011;14721;42.668;23.386;2024-01-16T04:03:20;3.37;;;2.00;;
27209;SDS011;14721;42.668;23.386;2024-01-16T04:05:45;3.73;;;2.27;;
27209;SDS011;14721;42.668;23.386;2024-01-16T04:08:44;3.67;;;2.23;;
27209;SDS011;14721;42.668;23.386;2024-01-16T04:11:34;2.57;;;1.70;;
27209;SDS011;14721;42.668;23.386;2024-01-16T04:14:16;2.63;;;1.60;;
27209;SDS011;14721;42.668;23.386;2024-01-16T04:16:47;4.50;;;2.10;;
27209;SDS011;14721;42.668;23.386;2024-01-16T04:19:17;3.07;;;1.87;;
27209;SDS011;14721;42.668;23.386;2024-01-16T04:21:50;3.20;;;1.97;;
27209;SDS011;14721;42.668;23.386;2024-01-16T04:24:18;3.07;;;1.97;;
27209;SDS011;14721;42.668;23.386;2024-01-16T04:26:44;3.47;;;2.00;;
27209;SDS011;14721;42.668;23.386;2024-01-16T04:29:09;3.33;;;1.53;;
27209;SDS011;14721;42.668;23.386;2024-01-16T04:31:39;3.10;;;1.80;;
27209;SDS011;14721;42.668;23.386;2024-01-16T04:34:15;3.47;;;1.60;;
27209;SDS011;14721;42.668;23.386;2024-01-16T04:36:40;4.13;;;1.40;;
27209;SDS011;14721;42.668;23.386;2024-01-16T04:39:06;2.87;;;1.77;;
27209;SDS011;14721;42.668;23.386;2024-01-16T04:41:33;2.77;;;1.50;;
27209;SDS011;14721;42.668;23.386;2024-01-16T04:44:01;2.80;;;1.30;;
27209;SDS011;14721;42.668;23.386;2024-01-16T04:46:26;2.33;;;1.50;;
27209;SDS011;14721;42.668;23.386;2024-01-16T04:48:53;3.13;;;1.60;;
27209;SDS011;14721;42.668;23.386;2024-01-16T04:51:26;2.17;;;1.20;;
27209;SDS011;14721;42.668;23.386;2024-01-16T04:53:51;2.27;;;1.17;;
27209;SDS011;14721;42.668;23.386;2024-01-16T04:56:17;2.73;;;1.57;;
27209;SDS011;14721;42.668;23.386;2024-01-16T04:58:46;2.03;;;1.10;;
27209;SDS011;14721;42.668;23.386;2024-01-16T05:01:14;2.60;;;1.40;;
27209;SDS011;14721;42.668;23.386;2024-01-16T05:03:39;1.17;;;0.77;;
27209;SDS011;14721;42.668;23.386;2024-01-16T05:06:16;2.07;;;1.00;;
27209;SDS011;14721;42.668;23.386;2024-01-16T05:08:42;1.40;;;0.90;;
27209;SDS011;14721;42.668;23.386;2024-01-16T05:11:20;1.80;;;1.10;;
27209;SDS011;14721;42.668;23.386;2024-01-16T05:14:01;1.37;;;1.10;;
27209;SDS011;14721;42.668;23.386;2024-01-16T05:16:36;2.63;;;1.20;;
27209;SDS011;14721;42.668;23.386;2024-01-16T05:19:03;2.10;;;1.10;;
27209;SDS011;14721;42.668;23.386;2024-01-16T05:21:41;1.20;;;0.70;;
27209;SDS011;14721;42.668;23.386;2024-01-16T05:24:09;2.03;;;1.13;;
27209;SDS011;14721;42.668;23.386;2024-01-16T05:26:55;1.83;;;1.10;;
27209;SDS011;14721;42.668;23.386;2024-01-16T05:29:20;1.27;;;1.07;;
27209;SDS011;14721;42.668;23.386;2024-01-16T05:31:54;1.90;;;1.10;;
27209;SDS011;14721;42.668;23.386;2024-01-16T05:34:19;2.17;;;1.23;;
27209;SDS011;14721;42.668;23.386;2024-01-16T05:36:45;0.73;;;0.60;;
27209;SDS011;14721;42.668;23.386;2024-01-16T05:39:12;1.93;;;1.23;;
27209;SDS011;14721;42.668;23.386;2024-01-16T05:41:38;1.43;;;1.03;;
27209;SDS011;14721;42.668;23.386;2024-01-16T05:44:03;2.87;;;1.40;;
27209;SDS011;14721;42.668;23.386;2024-01-16T05:46:30;2.43;;;1.43;;
27209;SDS011;14721;42.668;23.386;2024-01-16T05:49:09;1.60;;;0.90;;
27209;SDS011;14721;42.668;23.386;2024-01-16T05:51:46;1.47;;;0.77;;
27209;SDS011;14721;42.668;23.386;2024-01-16T05:54:14;1.93;;;1.30;;
27209;SDS011;14721;42.668;23.386;2024-01-16T05:56:40;3.00;;;1.20;;
27209;SDS011;14721;42.668;23.386;2024-01-16T05:59:18;2.77;;;1.67;;
27209;SDS011;14721;42.668;23.386;2024-01-16T06:01:44;2.27;;;1.10;;
27209;SDS011;14721;42.668;23.386;2024-01-16T06:04:09;1.97;;;0.90;;
27209;SDS011;14721;42.668;23.386;2024-01-16T06:07:00;1.87;;;0.83;;
27209;SDS011;14721;42.668;23.386;2024-01-16T06:09:25;1.43;;;0.70;;
27209;SDS011;14721;42.668;23.386;2024-01-16T06:14:39;1.27;;;1.07;;
27209;SDS011;14721;42.668;23.386;2024-01-16T06:17:08;1.40;;;0.80;;
27209;SDS011;14721;42.668;23.386;2024-01-16T06:19:56;1.73;;;0.90;;
27209;SDS011;14721;42.668;23.386;2024-01-16T06:22:23;1.83;;;1.23;;
27209;SDS011;14721;42.668;23.386;2024-01-16T06:24:48;2.37;;;1.23;;
27209;SDS011;14721;42.668;23.386;2024-01-16T06:27:24;1.70;;;0.87;;
27209;SDS011;14721;42.668;23.386;2024-01-16T06:29:50;0.73;;;0.60;;
27209;SDS011;14721;42.668;23.386;2024-01-16T06:32:36;1.43;;;1.20;;
27209;SDS011;14721;42.668;23.386;2024-01-16T06:35:01;1.90;;;1.10;;
27209;SDS011;14721;42.668;23.386;2024-01-16T06:37:27;3.00;;;1.07;;
27209;SDS011;14721;42.668;23.386;2024-01-16T06:39:58;1.33;;;0.93;;
27209;SDS011;14721;42.668;23.386;2024-01-16T06:42:43;2.30;;;1.10;;
27209;SDS011;14721;42.668;23.386;2024-01-16T06:45:36;1.83;;;1.23;;
27209;SDS011;14721;42.668;23.386;2024-01-16T06:48:04;1.50;;;0.73;;
27209;SDS011;14721;42.668;23.386;2024-01-16T06:50:29;2.00;;;1.00;;
27209;SDS011;14721;42.668;23.386;2024-01-16T06:52:55;1.73;;;0.80;;
27209;SDS011;14721;42.668;23.386;2024-01-16T06:55:24;1.87;;;0.87;;
27209;SDS011;14721;42.668;23.386;2024-01-16T06:57:49;1.20;;;0.90;;
27209;SDS011;14721;42.668;23.386;2024-01-16T07:00:15;2.93;;;1.17;;
27209;SDS011;14721;42.668;23.386;2024-01-16T07:02:41;1.83;;;0.93;;
27209;SDS011;14721;42.668;23.386;2024-01-16T07:05:09;2.40;;;1.27;;
27209;SDS011;14721;42.668;23.386;2024-01-16T07:07:36;3.33;;;1.13;;
27209;SDS011;14721;42.668;23.386;2024-01-16T07:10:02;3.37;;;1.70;;
27209;SDS011;14721;42.668;23.386;2024-01-16T07:12:32;2.47;;;0.97;;
27209;SDS011;14721;42.668;23.386;2024-01-16T07:15:27;2.07;;;1.10;;
27209;SDS011;14721;42.668;23.386;2024-01-16T07:18:14;1.43;;;1.10;;
27209;SDS011;14721;42.668;23.386;2024-01-16T07:20:45;2.20;;;1.17;;
27209;SDS011;14721;42.668;23.386;2024-01-16T07:23:26;2.40;;;1.33;;
27209;SDS011;14721;42.668;23.386;2024-01-16T07:26:20;2.27;;;1.40;;
27209;SDS011;14721;42.668;23.386;2024-01-16T07:29:18;1.70;;;1.10;;
27209;SDS011;14721;42.668;23.386;2024-01-16T07:31:51;2.60;;;1.40;;
27209;SDS011;14721;42.668;23.386;2024-01-16T07:34:24;6.17;;;1.33;;
27209;SDS011;14721;42.668;23.386;2024-01-16T07:51:04;2.47;;;1.50;;
27209;SDS011;14721;42.668;23.386;2024-01-16T07:53:36;2.50;;;1.20;;
27209;SDS011;14721;42.668;23.386;2024-01-16T07:56:07;1.37;;;0.93;;
27209;SDS011;14721;42.668;23.386;2024-01-16T07:58:37;0.93;;;0.70;;
27209;SDS011;14721;42.668;23.386;2024-01-16T08:04:07;3.47;;;1.33;;
27209;SDS011;14721;42.668;23.386;2024-01-16T08:09:11;2.90;;;1.37;;
27209;SDS011;14721;42.668;23.386;2024-01-16T08:11:58;2.80;;;1.00;;
27209;SDS011;14721;42.668;23.386;2024-01-16T08:14:37;3.33;;;0.83;;
27209;SDS011;14721;42.668;23.386;2024-01-16T08:19:51;2.67;;;1.20;;
27209;SDS011;14721;42.668;23.386;2024-01-16T08:23:00;1.37;;;0.97;;
27209;SDS011;14721;42.668;23.386;2024-01-16T08:30:58;2.23;;;1.23;;
27209;SDS011;14721;42.668;23.386;2024-01-16T08:39:22;1.43;;;0.70;;
27209;SDS011;14721;42.668;23.386;2024-01-16T08:41:58;1.03;;;0.67;;
27209;SDS011;14721;42.668;23.386;2024-01-16T08:53:03;2.13;;;1.20;;
27209;SDS011;14721;42.668;23.386;2024-01-16T09:01:11;1.70;;;0.73;;
27209;SDS011;14721;42.668;23.386;2024-01-16T09:04:18;4.37;;;1.20;;
27209;SDS011;14721;42.668;23.386;2024-01-16T09:07:15;2.93;;;1.40;;
27209;SDS011;14721;42.668;23.386;2024-01-16T09:10:11;2.20;;;1.30;;
27209;SDS011;14721;42.668;23.386;2024-01-16T09:15:23;2.10;;;1.50;;
27209;SDS011;14721;42.668;23.386;2024-01-16T09:21:25;4.03;;;1.40;;
27209;SDS011;14721;42.668;23.386;2024-01-16T09:24:05;3.23;;;1.53;;
27209;SDS011;14721;42.668;23.386;2024-01-16T09:27:14;3.60;;;1.57;;
27209;SDS011;14721;42.668;23.386;2024-01-16T09:32:59;3.50;;;1.63;;
27209;SDS011;14721;42.668;23.386;2024-01-16T09:36:05;2.00;;;1.13;;
27209;SDS011;14721;42.668;23.386;2024-01-16T09:41:18;6.70;;;1.43;;
27209;SDS011;14721;42.668;23.386;2024-01-16T09:46:34;1.60;;;1.10;;
27209;SDS011;14721;42.668;23.386;2024-01-16T09:49:17;1.87;;;1.10;;
27209;SDS011;14721;42.668;23.386;2024-01-16T09:52:07;2.27;;;1.27;;
27209;SDS011;14721;42.668;23.386;2024-01-16T10:03:15;2.53;;;1.30;;
27209;SDS011;14721;42.668;23.386;2024-01-16T10:05:46;1.80;;;1.10;;
27209;SDS011;14721;42.668;23.386;2024-01-16T10:08:34;2.47;;;1.10;;
27209;SDS011;14721;42.668;23.386;2024-01-16T10:14:33;1.83;;;1.13;;
27209;SDS011;14721;42.668;23.386;2024-01-16T10:17:09;2.77;;;1.20;;
27209;SDS011;14721;42.668;23.386;2024-01-16T10:19:50;3.33;;;1.30;;
27209;SDS011;14721;42.668;23.386;2024-01-16T10:22:28;2.43;;;0.67;;
27209;SDS011;14721;42.668;23.386;2024-01-16T10:28:08;3.20;;;1.43;;
27209;SDS011;14721;42.668;23.386;2024-01-16T10:30:52;2.57;;;1.20;;
27209;SDS011;14721;42.668;23.386;2024-01-16T10:33:52;1.67;;;1.17;;
27209;SDS011;14721;42.668;23.386;2024-01-16T10:36:20;4.27;;;1.87;;
27209;SDS011;14721;42.668;23.386;2024-01-16T10:39:02;2.00;;;1.40;;
27209;SDS011;14721;42.668;23.386;2024-01-16T10:41:31;1.90;;;0.80;;
27209;SDS011;14721;42.668;23.386;2024-01-16T10:44:24;5.43;;;1.43;;
27209;SDS011;14721;42.668;23.386;2024-01-16T10:46:49;3.40;;;1.57;;
27209;SDS011;14721;42.668;23.386;2024-01-16T10:49:15;1.27;;;1.03;;
27209;SDS011;14721;42.668;23.386;2024-01-16T10:51:43;3.37;;;1.07;;
27209;SDS011;14721;42.668;23.386;2024-01-16T10:54:15;3.43;;;2.00;;
27209;SDS011;14721;42.668;23.386;2024-01-16T10:57:00;2.07;;;1.30;;
27209;SDS011;14721;42.668;23.386;2024-01-16T11:00:11;4.70;;;1.40;;
27209;SDS011;14721;42.668;23.386;2024-01-16T11:02:49;3.07;;;1.00;;
27209;SDS011;14721;42.668;23.386;2024-01-16T11:05:27;1.10;;;0.87;;
27209;SDS011;14721;42.668;23.386;2024-01-16T11:08:01;3.20;;;1.80;;
27209;SDS011;14721;42.668;23.386;2024-01-16T11:11:01;1.83;;;1.33;;
27209;SDS011;14721;42.668;23.386;2024-01-16T11:13:40;3.20;;;1.50;;
27209;SDS011;14721;42.668;23.386;2024-01-16T11:28:26;2.93;;;1.97;;
27209;SDS011;14721;42.668;23.386;2024-01-16T11:31:34;5.73;;;1.87;;
27209;SDS011;14721;42.668;23.386;2024-01-16T11:37:27;2.63;;;1.20;;
27209;SDS011;14721;42.668;23.386;2024-01-16T11:42:46;2.23;;;1.40;;
27209;SDS011;14721;42.668;23.386;2024-01-16T11:48:11;4.67;;;1.50;;
27209;SDS011;14721;42.668;23.386;2024-01-16T11:50:41;4.60;;;1.70;;
27209;SDS011;14721;42.668;23.386;2024-01-16T11:53:10;3.83;;;1.70;;
27209;SDS011;14721;42.668;23.386;2024-01-16T11:56:01;3.73;;;1.70;;
27209;SDS011;14721;42.668;23.386;2024-01-16T12:01:55;2.87;;;1.43;;
27209;SDS011;14721;42.668;23.386;2024-01-16T12:04:27;3.90;;;2.00;;
27209;SDS011;14721;42.668;23.386;2024-01-16T12:07:01;2.60;;;1.57;;
27209;SDS011;14721;42.668;23.386;2024-01-16T12:09:32;3.67;;;1.40;;
27209;SDS011;14721;42.668;23.386;2024-01-16T12:12:14;4.97;;;1.70;;
27209;SDS011;14721;42.668;23.386;2024-01-16T12:18:07;4.07;;;1.43;;
27209;SDS011;14721;42.668;23.386;2024-01-16T12:20:43;3.57;;;1.93;;
27209;SDS011;14721;42.668;23.386;2024-01-16T12:23:14;3.33;;;1.77;;
27209;SDS011;14721;42.668;23.386;2024-01-16T12:25:55;5.80;;;1.50;;
27209;SDS011;14721;42.668;23.386;2024-01-16T12:28:33;3.13;;;1.73;;
27209;SDS011;14721;42.668;23.386;2024-01-16T12:31:01;5.20;;;2.10;;
27209;SDS011;14721;42.668;23.386;2024-01-16T12:33:48;5.00;;;1.87;;
27209;SDS011;14721;42.668;23.386;2024-01-16T12:36:24;2.33;;;1.43;;
27209;SDS011;14721;42.668;23.386;2024-01-16T12:39:10;7.77;;;1.80;;
27209;SDS011;14721;42.668;23.386;2024-01-16T12:41:47;3.40;;;1.83;;
27209;SDS011;14721;42.668;23.386;2024-01-16T12:44:43;2.87;;;1.50;;
27209;SDS011;14721;42.668;23.386;2024-01-16T12:47:15;2.80;;;1.53;;
27209;SDS011;14721;42.668;23.386;2024-01-16T12:49:50;2.80;;;1.40;;
27209;SDS011;14721;42.668;23.386;2024-01-16T12:52:19;2.53;;;1.23;;
27209;SDS011;14721;42.668;23.386;2024-01-16T12:54:47;3.33;;;1.30;;
27209;SDS011;14721;42.668;23.386;2024-01-16T12:57:20;2.77;;;1.70;;
27209;SDS011;14721;42.668;23.386;2024-01-16T12:59:46;3.00;;;1.50;;
27209;SDS011;14721;42.668;23.386;2024-01-16T13:02:23;2.73;;;1.20;;
27209;SDS011;14721;42.668;23.386;2024-01-16T13:07:45;3.80;;;2.07;;
27209;SDS011;14721;42.668;23.386;2024-01-16T13:10:14;3.43;;;1.57;;
27209;SDS011;14721;42.668;23.386;2024-01-16T13:13:15;3.80;;;1.83;;
27209;SDS011;14721;42.668;23.386;2024-01-16T13:16:04;5.77;;;1.77;;
27209;SDS011;14721;42.668;23.386;2024-01-16T13:21:51;4.37;;;1.77;;
27209;SDS011;14721;42.668;23.386;2024-01-16T13:24:37;3.37;;;2.20;;
27209;SDS011;14721;42.668;23.386;2024-01-16T13:27:05;2.17;;;1.27;;
27209;SDS011;14721;42.668;23.386;2024-01-16T13:29:36;9.30;;;1.90;;
27209;SDS011;14721;42.668;23.386;2024-01-16T13:32:35;3.50;;;1.60;;
27209;SDS011;14721;42.668;23.386;2024-01-16T13:35:42;3.60;;;2.10;;
27209;SDS011;14721;42.668;23.386;2024-01-16T13:39:08;3.30;;;1.47;;
27209;SDS011;14721;42.668;23.386;2024-01-16T13:44:45;4.23;;;2.03;;
27209;SDS011;14721;42.668;23.386;2024-01-16T13:47:16;5.73;;;2.07;;
27209;SDS011;14721;42.668;23.386;2024-01-16T13:57:58;3.90;;;1.97;;
27209;SDS011;14721;42.668;23.386;2024-01-16T14:04:23;4.27;;;2.17;;
27209;SDS011;14721;42.668;23.386;2024-01-16T14:07:14;3.80;;;2.00;;
27209;SDS011;14721;42.668;23.386;2024-01-16T14:16:48;5.97;;;1.73;;
27209;SDS011;14721;42.668;23.386;2024-01-16T14:19:37;4.13;;;1.90;;
27209;SDS011;14721;42.668;23.386;2024-01-16T14:31:08;2.23;;;1.50;;
27209;SDS011;14721;42.668;23.386;2024-01-16T14:43:10;4.10;;;2.07;;
27209;SDS011;14721;42.668;23.386;2024-01-16T14:48:58;4.47;;;1.90;;
27209;SDS011;14721;42.668;23.386;2024-01-16T14:54:40;3.37;;;1.80;;
27209;SDS011;14721;42.668;23.386;2024-01-16T14:57:06;4.33;;;1.80;;
27209;SDS011;14721;42.668;23.386;2024-01-16T14:59:35;6.33;;;2.60;;
27209;SDS011;14721;42.668;23.386;2024-01-16T15:02:03;4.53;;;2.33;;
27209;SDS011;14721;42.668;23.386;2024-01-16T15:04:40;5.30;;;1.87;;
27209;SDS011;14721;42.668;23.386;2024-01-16T15:07:35;4.73;;;2.40;;
27209;SDS011;14721;42.668;23.386;2024-01-16T15:10:08;3.03;;;1.77;;
27209;SDS011;14721;42.668;23.386;2024-01-16T15:12:41;5.30;;;2.60;;
27209;SDS011;14721;42.668;23.386;2024-01-16T15:15:08;5.50;;;2.40;;
27209;SDS011;14721;42.668;23.386;2024-01-16T15:20:54;8.07;;;2.93;;
27209;SDS011;14721;42.668;23.386;2024-01-16T15:23:23;5.50;;;2.87;;
27209;SDS011;14721;42.668;23.386;2024-01-16T15:26:05;6.73;;;2.30;;
27209;SDS011;14721;42.668;23.386;2024-01-16T15:28:34;10.20;;;2.50;;
27209;SDS011;14721;42.668;23.386;2024-01-16T15:31:26;5.53;;;2.33;;
27209;SDS011;14721;42.668;23.386;2024-01-16T15:34:06;9.77;;;2.30;;
27209;SDS011;14721;42.668;23.386;2024-01-16T15:37:24;7.47;;;2.90;;
27209;SDS011;14721;42.668;23.386;2024-01-16T15:39:56;6.17;;;3.70;;
27209;SDS011;14721;42.668;23.386;2024-01-16T15:42:24;6.50;;;2.53;;
27209;SDS011;14721;42.668;23.386;2024-01-16T15:44:58;6.27;;;2.97;;
27209;SDS011;14721;42.668;23.386;2024-01-16T15:50:31;7.00;;;2.20;;
27209;SDS011;14721;42.668;23.386;2024-01-16T15:53:22;5.03;;;2.27;;
27209;SDS011;14721;42.668;23.386;2024-01-16T15:55:48;7.47;;;2.90;;
27209;SDS011;14721;42.668;23.386;2024-01-16T15:58:14;5.20;;;2.53;;
27209;SDS011;14721;42.668;23.386;2024-01-16T16:00:44;7.93;;;2.67;;
27209;SDS011;14721;42.668;23.386;2024-01-16T16:03:17;6.80;;;2.60;;
27209;SDS011;14721;42.668;23.386;2024-01-16T16:05:47;4.33;;;2.50;;
27209;SDS011;14721;42.668;23.386;2024-01-16T16:08:15;6.83;;;3.33;;
27209;SDS011;14721;42.668;23.386;2024-01-16T16:10:40;5.43;;;2.50;;
27209;SDS011;14721;42.668;23.386;2024-01-16T16:13:07;9.13;;;3.37;;
27209;SDS011;14721;42.668;23.386;2024-01-16T16:15:39;7.63;;;2.63;;
27209;SDS011;14721;42.668;23.386;2024-01-16T16:18:05;7.63;;;2.93;;
27209;SDS011;14721;42.668;23.386;2024-01-16T16:20:32;6.07;;;2.90;;
27209;SDS011;14721;42.668;23.386;2024-01-16T16:22:58;7.30;;;2.93;;
27209;SDS011;14721;42.668;23.386;2024-01-16T16:25:49;10.63;;;3.00;;
27209;SDS011;14721;42.668;23.386;2024-01-16T16:28:39;17.70;;;4.33;;
27209;SDS011;14721;42.668;23.386;2024-01-16T16:31:06;8.53;;;3.43;;
27209;SDS011;14721;42.668;23.386;2024-01-16T16:33:33;10.27;;;3.83;;
27209;SDS011;14721;42.668;23.386;2024-01-16T16:36:16;6.17;;;3.10;;
27209;SDS011;14721;42.668;23.386;2024-01-16T16:38:48;11.33;;;3.43;;
27209;SDS011;14721;42.668;23.386;2024-01-16T16:41:17;9.50;;;3.97;;
27209;SDS011;14721;42.668;23.386;2024-01-16T16:43:49;9.23;;;4.00;;
27209;SDS011;14721;42.668;23.386;2024-01-16T16:46:21;12.67;;;4.00;;
27209;SDS011;14721;42.668;23.386;2024-01-16T16:48:48;8.93;;;3.20;;
27209;SDS011;14721;42.668;23.386;2024-01-16T16:51:16;8.23;;;4.03;;
27209;SDS011;14721;42.668;23.386;2024-01-16T16:53:46;9.10;;;4.43;;
27209;SDS011;14721;42.668;23.386;2024-01-16T16:56:21;9.00;;;3.57;;
27209;SDS011;14721;42.668;23.386;2024-01-16T16:58:49;11.83;;;4.40;;
27209;SDS011;14721;42.668;23.386;2024-01-16T17:01:16;14.37;;;4.57;;
27209;SDS011;14721;42.668;23.386;2024-01-16T17:03:43;7.67;;;3.57;;
27209;SDS011;14721;42.668;23.386;2024-01-16T17:06:14;6.73;;;3.50;;
27209;SDS011;14721;42.668;23.386;2024-01-16T17:08:39;7.57;;;3.87;;
27209;SDS011;14721;42.668;23.386;2024-01-16T17:11:08;8.70;;;3.80;;
27209;SDS011;14721;42.668;23.386;2024-01-16T17:13:37;10.97;;;3.93;;
27209;SDS011;14721;42.668;23.386;2024-01-16T17:16:05;13.10;;;4.70;;
27209;SDS011;14721;42.668;23.386;2024-01-16T17:18:32;11.70;;;4.50;;
27209;SDS011;14721;42.668;23.386;2024-01-16T17:21:00;10.43;;;3.80;;
27209;SDS011;14721;42.668;23.386;2024-01-16T17:23:26;12.47;;;3.70;;
27209;SDS011;14721;42.668;23.386;2024-01-16T17:25:51;8.07;;;4.23;;
27209;SDS011;14721;42.668;23.386;2024-01-16T17:28:20;10.00;;;4.27;;
27209;SDS011;14721;42.668;23.386;2024-01-16T17:31:02;9.97;;;3.70;;
27209;SDS011;14721;42.668;23.386;2024-01-16T17:40:12;9.40;;;3.87;;
27209;SDS011;14721;42.668;23.386;2024-01-16T17:42:38;7.97;;;4.33;;
27209;SDS011;14721;42.668;23.386;2024-01-16T17:45:04;14.67;;;4.77;;
27209;SDS011;14721;42.668;23.386;2024-01-16T17:47:32;8.63;;;4.70;;
27209;SDS011;14721;42.668;23.386;2024-01-16T17:49:58;10.87;;;4.37;;
27209;SDS011;14721;42.668;23.386;2024-01-16T17:58:50;9.10;;;4.30;;
27209;SDS011;14721;42.668;23.386;2024-01-16T18:01:16;9.93;;;4.23;;
27209;SDS011;14721;42.668;23.386;2024-01-16T18:03:41;14.30;;;4.97;;
27209;SDS011;14721;42.668;23.386;2024-01-16T18:06:07;11.40;;;4.83;;
27209;SDS011;14721;42.668;23.386;2024-01-16T18:12:07;11.03;;;4.90;;
27209;SDS011;14721;42.668;23.386;2024-01-16T18:14:35;16.33;;;4.87;;
27209;SDS011;14721;42.668;23.386;2024-01-16T18:17:03;13.17;;;4.83;;
27209;SDS011;14721;42.668;23.386;2024-01-16T18:19:41;10.87;;;5.23;;
27209;SDS011;14721;42.668;23.386;2024-01-16T18:22:09;12.63;;;6.63;;
27209;SDS011;14721;42.668;23.386;2024-01-16T18:24:35;17.30;;;5.70;;
27209;SDS011;14721;42.668;23.386;2024-01-16T18:27:02;16.87;;;6.50;;
27209;SDS011;14721;42.668;23.386;2024-01-16T18:29:30;14.80;;;6.20;;